Time;durP1;ratioP1;P1;durP2;ratioP2;P2;SDS_P1;SDS_P2;PMS_P1;PMS_P2;Temp;Humidity;BMP_temperature;BMP_pressure;BME280_temperature;BME280_humidity;BME280_pressure;Samples;Min_cycle;Max_cycle;Signal;HPM_P1;HPM_P2
2023/01/08 00:00:06;;;;;;;24.63;22.60;;;5.60;99.90;;;;;;5089566;28;20450;-81
2023/01/08 00:02:32;;;;;;;25.13;23.33;;;5.60;99.90;;;;;;5089467;28;20446;-80
2023/01/08 00:04:59;;;;;;;25.60;23.27;;;5.60;99.90;;;;;;5089814;28;20457;-80
2023/01/08 00:07:26;;;;;;;24.57;22.67;;;5.50;99.90;;;;;;5089533;28;20450;-80
2023/01/08 00:09:53;;;;;;;24.30;22.40;;;5.50;99.90;;;;;;5088996;28;21002;-78
2023/01/08 00:12:20;;;;;;;25.07;23.23;;;5.50;99.90;;;;;;5089059;28;20834;-78
2023/01/08 00:14:48;;;;;;;23.70;21.90;;;5.50;99.90;;;;;;5088700;28;20459;-77
2023/01/08 00:17:15;;;;;;;24.20;22.60;;;5.50;99.90;;;;;;5089451;28;21029;-77
2023/01/08 00:19:41;;;;;;;24.70;22.90;;;5.50;99.90;;;;;;5089623;28;20453;-77
2023/01/08 00:22:08;;;;;;;26.10;24.10;;;5.50;99.90;;;;;;5089416;28;20453;-77
2023/01/08 00:24:35;;;;;;;23.20;21.70;;;5.50;99.90;;;;;;5088839;28;20461;-79
2023/01/08 00:27:02;;;;;;;24.80;23.00;;;5.50;99.90;;;;;;5088931;28;20575;-79
2023/01/08 00:29:29;;;;;;;23.50;21.93;;;5.50;99.90;;;;;;5089065;28;20853;-79
2023/01/08 00:31:57;;;;;;;24.43;22.63;;;5.40;99.90;;;;;;5088731;28;20450;-79
2023/01/08 00:34:23;;;;;;;25.33;23.40;;;5.40;99.90;;;;;;5088526;28;20814;-79
2023/01/08 00:36:50;;;;;;;26.50;24.60;;;5.50;99.90;;;;;;5088543;28;20469;-79
2023/01/08 00:39:17;;;;;;;22.30;20.77;;;5.40;99.90;;;;;;5088962;28;20455;-78
2023/01/08 00:41:44;;;;;;;22.97;21.27;;;5.40;99.90;;;;;;5088881;28;20955;-78
2023/01/08 00:44:11;;;;;;;23.87;22.13;;;5.50;99.90;;;;;;5086882;28;20453;-79
2023/01/08 00:46:38;;;;;;;22.93;21.43;;;5.50;99.90;;;;;;5088138;28;20932;-79
2023/01/08 00:49:06;;;;;;;22.33;20.77;;;5.60;99.90;;;;;;5088198;28;20474;-79
2023/01/08 00:51:32;;;;;;;21.50;20.00;;;5.70;99.90;;;;;;5088310;28;20930;-79
2023/01/08 00:53:59;;;;;;;23.27;21.53;;;5.70;99.90;;;;;;5089024;28;20891;-79
2023/01/08 00:56:26;;;;;;;23.53;21.77;;;5.70;99.90;;;;;;5087501;28;21088;-79
2023/01/08 00:58:52;;;;;;;24.47;22.70;;;5.60;99.90;;;;;;5087428;28;20803;-79
2023/01/08 01:01:19;;;;;;;22.60;21.00;;;5.60;99.90;;;;;;5088340;28;20446;-79
2023/01/08 01:03:46;;;;;;;24.70;22.90;;;5.50;99.90;;;;;;5088284;28;20458;-79
2023/01/08 01:06:14;;;;;;;24.23;22.43;;;5.40;99.90;;;;;;5087979;28;20455;-77
2023/01/08 01:08:43;;;;;;;24.27;22.43;;;5.30;99.90;;;;;;5087799;28;20486;-77
2023/01/08 01:11:13;;;;;;;26.17;24.00;;;5.20;99.90;;;;;;5087870;28;20547;-77
2023/01/08 01:13:40;;;;;;;24.33;22.53;;;5.10;99.90;;;;;;5087824;28;20453;-77
2023/01/08 01:16:08;;;;;;;25.53;23.57;;;5.10;99.90;;;;;;5087875;28;20446;-77
2023/01/08 01:18:35;;;;;;;26.73;24.23;;;5.10;99.90;;;;;;5087742;28;20660;-77
2023/01/08 01:21:02;;;;;;;24.60;22.90;;;5.10;99.90;;;;;;5087925;28;20451;-77
2023/01/08 01:23:30;;;;;;;26.47;24.40;;;5.10;99.90;;;;;;5088008;28;20457;-80
2023/01/08 01:25:56;;;;;;;25.47;23.47;;;5.10;99.90;;;;;;5088198;28;20454;-80
2023/01/08 01:28:23;;;;;;;25.80;23.80;;;5.20;99.90;;;;;;5087872;28;20461;-79
2023/01/08 01:30:54;;;;;;;25.00;23.13;;;5.30;99.90;;;;;;5088252;28;20450;-79
2023/01/08 01:33:21;;;;;;;25.20;23.40;;;5.30;99.90;;;;;;5088410;28;20439;-81
2023/01/08 01:35:48;;;;;;;24.17;22.23;;;5.40;99.90;;;;;;5087929;28;20502;-80
2023/01/08 01:38:15;;;;;;;24.07;22.20;;;5.40;99.90;;;;;;5088017;28;20458;-79
2023/01/08 01:40:43;;;;;;;23.03;21.23;;;5.40;99.90;;;;;;5087951;28;20448;-77
2023/01/08 01:43:12;;;;;;;24.80;22.70;;;5.50;99.90;;;;;;5091262;28;20446;-78
2023/01/08 01:45:39;;;;;;;23.10;21.50;;;5.60;99.90;;;;;;5087595;28;20525;-78
2023/01/08 01:48:11;;;;;;;23.20;21.47;;;5.60;99.90;;;;;;5087924;28;20445;-78
2023/01/08 01:50:41;;;;;;;21.60;20.03;;;5.70;99.90;;;;;;5087986;28;20501;-78
2023/01/08 01:53:11;;;;;;;23.53;22.03;;;5.80;99.90;;;;;;5088048;28;20438;-78
2023/01/08 01:55:40;;;;;;;24.70;23.00;;;5.80;99.90;;;;;;5087804;28;20438;-78
2023/01/08 01:58:12;;;;;;;22.93;21.50;;;5.80;99.90;;;;;;5088040;28;20830;-78
2023/01/08 02:00:39;;;;;;;23.87;22.20;;;5.80;99.90;;;;;;5088194;28;20438;-77
2023/01/08 02:03:05;;;;;;;21.30;20.00;;;5.90;99.90;;;;;;5088565;28;20469;-78
2023/01/08 02:05:41;;;;;;;22.33;20.73;;;5.90;99.90;;;;;;5097534;28;20455;-78
2023/01/08 02:08:12;;;;;;;23.80;22.13;;;6.00;99.90;;;;;;5099567;28;20450;-77
2023/01/08 02:10:48;;;;;;;24.27;22.30;;;6.10;99.90;;;;;;5098920;28;20508;-78
2023/01/08 02:13:26;;;;;;;23.63;22.03;;;6.10;99.90;;;;;;5099685;28;20455;-79
2023/01/08 02:15:58;;;;;;;21.80;20.40;;;6.20;99.90;;;;;;5100126;28;20437;-79
2023/01/08 02:18:31;;;;;;;23.43;21.73;;;6.20;99.90;;;;;;5090143;28;20460;-79
2023/01/08 02:21:03;;;;;;;23.00;21.53;;;6.20;99.90;;;;;;5091538;28;20466;-78
2023/01/08 02:23:37;;;;;;;22.33;20.67;;;6.10;99.90;;;;;;5091326;28;20457;-77
2023/01/08 02:26:11;;;;;;;24.43;22.67;;;6.10;99.90;;;;;;5091446;28;20461;-79
2023/01/08 02:28:42;;;;;;;23.33;21.67;;;6.00;99.90;;;;;;5091498;28;20456;-81
2023/01/08 02:31:09;;;;;;;23.77;21.93;;;6.00;99.90;;;;;;5091568;28;20794;-81
2023/01/08 02:33:36;;;;;;;24.20;22.40;;;5.90;99.90;;;;;;5091217;28;20465;-82
2023/01/08 02:36:25;;;;;;;23.53;21.53;;;5.90;99.90;;;;;;5091146;28;20450;-81
2023/01/08 02:39:04;;;;;;;23.03;21.43;;;5.80;99.90;;;;;;5091248;28;20446;-78
2023/01/08 02:41:39;;;;;;;24.27;22.50;;;5.80;99.90;;;;;;5091357;28;20446;-78
2023/01/08 02:44:09;;;;;;;24.47;22.37;;;5.70;99.90;;;;;;5091419;28;20449;-79
2023/01/08 02:46:39;;;;;;;23.27;21.63;;;5.80;99.90;;;;;;5092233;28;20446;-78
2023/01/08 02:49:09;;;;;;;22.33;20.83;;;5.80;99.90;;;;;;5101959;28;20469;-78
2023/01/08 02:51:40;;;;;;;22.90;21.37;;;5.80;99.90;;;;;;5115046;28;20485;-79
2023/01/08 02:54:11;;;;;;;23.73;22.03;;;5.80;99.90;;;;;;5112847;28;20445;-78
2023/01/08 02:56:43;;;;;;;24.77;23.07;;;5.80;99.90;;;;;;5113970;28;20442;-78
2023/01/08 02:59:12;;;;;;;25.07;23.13;;;5.80;99.90;;;;;;5114994;28;20510;-79
2023/01/08 03:01:39;;;;;;;23.37;21.80;;;5.80;99.90;;;;;;5111033;28;20445;-79
2023/01/08 03:04:11;;;;;;;23.93;22.33;;;5.70;99.90;;;;;;5102571;28;21159;-80
2023/01/08 03:06:39;;;;;;;23.23;21.60;;;5.70;99.90;;;;;;5092661;28;20461;-79
2023/01/08 03:09:05;;;;;;;25.17;23.03;;;5.60;99.90;;;;;;5090833;28;20497;-80
2023/01/08 03:11:39;;;;;;;24.37;22.63;;;5.60;99.90;;;;;;5090487;28;20553;-80
2023/01/08 03:14:11;;;;;;;24.37;22.60;;;5.60;99.90;;;;;;5091103;28;20450;-80
2023/01/08 03:16:41;;;;;;;24.03;22.13;;;5.50;99.90;;;;;;5089167;28;20454;-80
2023/01/08 03:19:12;;;;;;;23.47;21.97;;;5.50;99.90;;;;;;5090444;28;20462;-79
2023/01/08 03:21:41;;;;;;;24.43;22.47;;;5.60;99.90;;;;;;5091088;28;20452;-80
2023/01/08 03:24:10;;;;;;;22.97;21.27;;;5.60;99.90;;;;;;5092454;28;20446;-80
2023/01/08 03:26:38;;;;;;;23.43;22.03;;;5.60;99.90;;;;;;5092550;28;20458;-80
2023/01/08 03:29:09;;;;;;;23.87;22.17;;;5.70;99.90;;;;;;5095393;28;20446;-80
2023/01/08 03:31:37;;;;;;;23.63;22.03;;;5.70;99.90;;;;;;5095601;28;20453;-80
2023/01/08 03:34:05;;;;;;;25.87;23.47;;;5.80;99.90;;;;;;5091521;28;20437;-81
2023/01/08 03:36:35;;;;;;;23.07;21.57;;;5.80;99.90;;;;;;5091021;28;20446;-80
2023/01/08 03:39:08;;;;;;;23.97;21.93;;;5.80;99.90;;;;;;5090509;28;20485;-80
2023/01/08 03:41:36;;;;;;;23.03;21.47;;;5.80;99.90;;;;;;5091034;28;20828;-80
2023/01/08 03:44:03;;;;;;;23.50;21.50;;;5.80;99.90;;;;;;5090180;28;20446;-80
2023/01/08 03:46:33;;;;;;;24.60;22.87;;;5.80;99.90;;;;;;5090669;28;20450;-80
2023/01/08 03:49:01;;;;;;;24.30;22.80;;;5.80;99.90;;;;;;5089669;28;20442;-79
2023/01/08 03:51:28;;;;;;;24.33;22.60;;;5.90;99.90;;;;;;5090059;28;20516;-80
2023/01/08 03:53:58;;;;;;;23.93;22.33;;;5.90;99.90;;;;;;5090146;28;20450;-79
2023/01/08 03:56:25;;;;;;;23.73;22.17;;;6.00;99.90;;;;;;5090081;28;20453;-78
2023/01/08 03:58:52;;;;;;;25.07;23.00;;;6.00;99.90;;;;;;5089262;28;20551;-76
2023/01/08 04:01:19;;;;;;;24.43;22.70;;;6.00;99.90;;;;;;5097744;28;20438;-77
2023/01/08 04:03:47;;;;;;;23.67;21.97;;;6.00;99.90;;;;;;5101981;28;20446;-77
2023/01/08 04:06:13;;;;;;;22.77;21.27;;;6.10;99.90;;;;;;5106087;28;20541;-80
2023/01/08 04:08:40;;;;;;;25.13;23.43;;;6.00;99.90;;;;;;5086070;28;20492;-80
2023/01/08 04:11:07;;;;;;;26.63;24.93;;;6.10;99.90;;;;;;5090110;28;20486;-80
2023/01/08 04:13:33;;;;;;;25.23;23.43;;;6.00;99.90;;;;;;5090099;28;20454;-80
2023/01/08 04:16:00;;;;;;;23.87;22.27;;;5.90;99.90;;;;;;5090278;28;20454;-79
2023/01/08 04:18:27;;;;;;;25.50;23.60;;;5.90;99.90;;;;;;5090128;28;20425;-78
2023/01/08 04:20:55;;;;;;;23.33;21.70;;;5.90;99.90;;;;;;5089756;28;20450;-80
2023/01/08 04:23:21;;;;;;;24.30;22.53;;;5.90;99.90;;;;;;5090000;28;20450;-80
2023/01/08 04:25:48;;;;;;;23.57;22.07;;;5.90;99.90;;;;;;5090025;28;20966;-80
2023/01/08 04:28:15;;;;;;;23.27;21.87;;;5.90;99.90;;;;;;5090236;28;20450;-79
2023/01/08 04:30:41;;;;;;;23.90;22.20;;;5.90;99.90;;;;;;5088859;28;21000;-79
2023/01/08 04:33:08;;;;;;;22.67;21.23;;;6.00;99.90;;;;;;5089659;28;20820;-81
2023/01/08 04:35:35;;;;;;;22.93;21.53;;;6.00;99.90;;;;;;5090122;28;20475;-81
2023/01/08 04:38:03;;;;;;;22.23;20.50;;;6.10;99.90;;;;;;5089906;28;20515;-81
2023/01/08 04:40:29;;;;;;;22.40;20.97;;;6.10;99.90;;;;;;5090117;28;20859;-78
2023/01/08 04:42:56;;;;;;;22.20;20.70;;;6.10;99.90;;;;;;5089816;28;20458;-78
2023/01/08 04:45:23;;;;;;;23.20;21.40;;;6.10;99.90;;;;;;5089386;28;20450;-78
2023/01/08 04:47:56;;;;;;;22.27;20.80;;;6.10;99.90;;;;;;5089624;28;20461;-77
2023/01/08 04:50:22;;;;;;;22.03;20.47;;;6.10;99.90;;;;;;5089622;28;20485;-77
2023/01/08 04:52:49;;;;;;;23.33;21.73;;;6.10;99.90;;;;;;5081222;28;20475;-78
2023/01/08 04:55:17;;;;;;;22.00;20.53;;;6.20;99.90;;;;;;5089654;28;20460;-79
2023/01/08 04:57:44;;;;;;;24.10;22.40;;;6.20;99.90;;;;;;5090240;28;20455;-77
2023/01/08 05:00:12;;;;;;;23.63;22.13;;;6.20;99.90;;;;;;5089773;28;20503;-78
2023/01/08 05:02:39;;;;;;;22.97;21.33;;;6.10;99.90;;;;;;5089811;28;20458;-81
2023/01/08 05:05:06;;;;;;;22.40;21.00;;;6.10;99.90;;;;;;5089909;28;20485;-81
2023/01/08 05:07:33;;;;;;;21.27;19.87;;;6.10;99.90;;;;;;5089848;28;20454;-81
2023/01/08 05:10:00;;;;;;;21.50;20.20;;;6.20;99.90;;;;;;5089747;28;20938;-79
2023/01/08 05:12:28;;;;;;;20.73;19.23;;;6.30;99.90;;;;;;5089707;28;20477;-79
2023/01/08 05:14:54;;;;;;;20.97;19.40;;;6.40;99.90;;;;;;5089358;28;20446;-79
2023/01/08 05:17:21;;;;;;;22.63;21.00;;;6.50;99.90;;;;;;5084931;28;20465;-80
2023/01/08 05:19:48;;;;;;;20.30;18.90;;;6.70;99.90;;;;;;5088527;28;20450;-79
2023/01/08 05:22:14;;;;;;;21.20;19.60;;;6.80;99.90;;;;;;5089254;28;20453;-81
2023/01/08 05:24:41;;;;;;;21.30;19.80;;;6.90;99.90;;;;;;5089400;28;20451;-81
2023/01/08 05:27:08;;;;;;;16.60;15.80;;;6.90;99.90;;;;;;5089495;28;20450;-82
2023/01/08 05:29:36;;;;;;;15.10;14.30;;;7.30;99.90;;;;;;5089026;28;20457;-83
2023/01/08 05:32:02;;;;;;;14.17;13.47;;;8.10;99.90;;;;;;5087505;28;20446;-81
2023/01/08 05:34:29;;;;;;;14.60;13.80;;;8.60;99.90;;;;;;5089211;28;20471;-81
2023/01/08 05:36:55;;;;;;;14.07;13.37;;;8.90;99.90;;;;;;5092883;28;20453;-79
2023/01/08 05:39:22;;;;;;;13.37;12.77;;;9.20;99.90;;;;;;5089227;28;20453;-78
2023/01/08 05:41:49;;;;;;;13.57;12.97;;;9.60;99.90;;;;;;5089630;28;20474;-78
2023/01/08 05:44:15;;;;;;;13.40;12.80;;;9.80;99.90;;;;;;5093413;28;20905;-78
2023/01/08 05:46:43;;;;;;;12.97;12.47;;;10.00;99.90;;;;;;5093543;28;20445;-77
2023/01/08 05:49:10;;;;;;;14.13;13.53;;;10.10;99.90;;;;;;5093716;28;20461;-77
2023/01/08 05:51:37;;;;;;;13.97;13.47;;;10.10;99.90;;;;;;5103611;28;20485;-75
2023/01/08 05:54:03;;;;;;;14.40;13.90;;;10.10;99.90;;;;;;5113111;28;20444;-75
2023/01/08 05:56:30;;;;;;;15.23;14.63;;;10.00;99.90;;;;;;5113411;28;20448;-75
2023/01/08 05:58:57;;;;;;;15.90;15.10;;;9.90;99.90;;;;;;5113248;28;20891;-74
2023/01/08 06:01:23;;;;;;;16.23;15.63;;;9.90;99.90;;;;;;5111350;28;20433;-73
2023/01/08 06:03:55;;;;;;;16.20;15.60;;;9.90;99.90;;;;;;5113284;28;20510;-73
2023/01/08 06:06:22;;;;;;;15.23;14.73;;;9.90;99.90;;;;;;5113591;28;20456;-73
2023/01/08 06:08:48;;;;;;;16.30;15.70;;;9.90;99.90;;;;;;5113626;28;20935;-73
2023/01/08 06:11:15;;;;;;;18.80;17.90;;;9.90;99.90;;;;;;5113810;28;20850;-72
2023/01/08 06:13:43;;;;;;;21.20;20.20;;;9.90;99.90;;;;;;5113524;28;20810;-72
2023/01/08 06:16:10;;;;;;;24.50;23.30;;;9.80;99.90;;;;;;5113380;28;20448;-72
2023/01/08 06:18:36;;;;;;;31.00;29.50;;;9.80;99.90;;;;;;5113360;28;20671;-71
2023/01/08 06:21:05;;;;;;;31.97;30.40;;;9.70;99.90;;;;;;5113166;28;20942;-71
2023/01/08 06:23:32;;;;;;;32.07;30.47;;;9.60;99.90;;;;;;5113415;28;20453;-70
2023/01/08 06:26:00;;;;;;;33.03;31.33;;;9.50;99.90;;;;;;5113419;28;20445;-71
2023/01/08 06:28:27;;;;;;;33.40;31.60;;;9.40;99.90;;;;;;5113397;28;20453;-71
2023/01/08 06:30:54;;;;;;;32.30;30.60;;;9.30;99.90;;;;;;5112878;28;20492;-72
2023/01/08 06:33:20;;;;;;;32.57;30.87;;;9.30;99.90;;;;;;5113043;28;20445;-73
2023/01/08 06:35:47;;;;;;;31.27;29.77;;;9.40;99.90;;;;;;5113071;28;20449;-73
2023/01/08 06:38:17;;;;;;;33.43;31.83;;;9.30;99.90;;;;;;5105033;28;20443;-74
2023/01/08 06:40:44;;;;;;;33.03;31.43;;;9.30;99.90;;;;;;5101190;28;20476;-73
2023/01/08 06:43:11;;;;;;;33.47;31.83;;;9.30;99.90;;;;;;5101992;28;20446;-71
2023/01/08 06:45:38;;;;;;;33.20;31.60;;;9.30;99.90;;;;;;5071594;28;20450;-73
2023/01/08 06:48:06;;;;;;;34.60;32.90;;;9.30;99.90;;;;;;5071870;28;21136;-71
2023/01/08 06:50:34;;;;;;;33.00;31.40;;;9.30;99.90;;;;;;5071899;28;21012;-72
2023/01/08 06:53:01;;;;;;;34.30;32.53;;;9.20;99.90;;;;;;5071718;28;20454;-72
2023/01/08 06:55:29;;;;;;;33.73;32.03;;;9.20;99.90;;;;;;5071821;28;20463;-72
2023/01/08 06:57:57;;;;;;;33.30;31.67;;;9.20;99.90;;;;;;5072078;28;20439;-73
2023/01/08 07:00:25;;;;;;;32.13;30.63;;;9.20;99.90;;;;;;5071927;28;20497;-72
2023/01/08 07:02:52;;;;;;;33.37;31.63;;;9.30;99.90;;;;;;5071992;28;20455;-74
2023/01/08 07:05:19;;;;;;;32.30;30.80;;;9.30;99.90;;;;;;5072039;28;20464;-75
2023/01/08 07:07:46;;;;;;;31.97;30.47;;;9.20;99.90;;;;;;5072123;28;20443;-74
2023/01/08 07:10:13;;;;;;;32.17;30.67;;;9.10;99.90;;;;;;5091227;28;20813;-73
2023/01/08 07:12:41;;;;;;;33.20;31.50;;;9.10;99.90;;;;;;5095766;28;20462;-73
2023/01/08 07:15:08;;;;;;;34.03;32.30;;;9.10;99.90;;;;;;5092791;28;20438;-73
2023/01/08 07:17:35;;;;;;;33.70;32.00;;;9.10;99.90;;;;;;5090173;28;20848;-73
2023/01/08 07:20:02;;;;;;;33.43;31.63;;;9.10;99.90;;;;;;5090347;28;20446;-73
2023/01/08 07:22:29;;;;;;;33.50;31.80;;;9.10;99.90;;;;;;5087841;28;20438;-73
2023/01/08 07:24:55;;;;;;;34.10;32.40;;;9.10;99.90;;;;;;5098486;28;20449;-74
2023/01/08 07:27:22;;;;;;;32.97;31.37;;;9.10;99.90;;;;;;5101509;28;20450;-75
2023/01/08 07:29:50;;;;;;;32.30;30.60;;;9.10;99.90;;;;;;5111682;28;20446;-76
2023/01/08 07:32:17;;;;;;;31.13;29.63;;;9.20;99.90;;;;;;5111851;28;20489;-75
2023/01/08 07:34:44;;;;;;;32.97;30.97;;;9.30;99.90;;;;;;5112181;28;20457;-74
2023/01/08 07:37:10;;;;;;;32.40;30.70;;;9.30;99.90;;;;;;5112013;28;20551;-73
2023/01/08 07:39:37;;;;;;;32.50;30.80;;;9.30;99.90;;;;;;5111880;28;20457;-72
2023/01/08 07:42:04;;;;;;;34.10;32.10;;;9.40;99.90;;;;;;5111534;28;20452;-72
2023/01/08 07:44:30;;;;;;;32.33;30.63;;;9.40;99.90;;;;;;5111672;28;20449;-72
2023/01/08 07:46:58;;;;;;;33.63;31.80;;;9.40;99.90;;;;;;5111850;28;20856;-73
2023/01/08 07:49:25;;;;;;;33.47;31.77;;;9.30;99.90;;;;;;5111754;28;20859;-73
2023/01/08 07:51:52;;;;;;;33.40;31.70;;;9.30;99.90;;;;;;5111436;28;20813;-72
2023/01/08 07:54:18;;;;;;;32.77;30.97;;;9.30;99.90;;;;;;5111461;28;20453;-73
2023/01/08 07:56:45;;;;;;;33.53;31.80;;;9.30;99.90;;;;;;5111491;28;20449;-73
2023/01/08 07:59:12;;;;;;;33.67;31.97;;;9.30;99.90;;;;;;5111698;28;20445;-72
2023/01/08 08:01:38;;;;;;;33.00;31.30;;;9.30;99.90;;;;;;5098596;28;20465;-74
2023/01/08 08:04:06;;;;;;;34.00;32.30;;;9.30;99.90;;;;;;5091029;28;20446;-74
2023/01/08 08:06:33;;;;;;;33.60;31.90;;;9.30;99.90;;;;;;5090747;28;20442;-74
2023/01/08 08:09:00;;;;;;;32.50;30.90;;;9.30;99.90;;;;;;5090934;28;21024;-72
2023/01/08 08:11:26;;;;;;;32.80;31.20;;;9.30;99.90;;;;;;5090670;28;20543;-73
2023/01/08 08:13:53;;;;;;;33.03;31.33;;;9.30;99.90;;;;;;5090731;28;20458;-73
2023/01/08 08:16:20;;;;;;;32.30;30.70;;;9.30;99.90;;;;;;5090722;28;20446;-72
2023/01/08 08:18:46;;;;;;;32.60;30.90;;;9.30;99.90;;;;;;5090729;28;20445;-72
2023/01/08 08:21:14;;;;;;;33.10;31.40;;;9.30;99.90;;;;;;5090741;28;20442;-72
2023/01/08 08:23:41;;;;;;;33.17;31.53;;;9.30;99.90;;;;;;5094337;28;20450;-73
2023/01/08 08:26:07;;;;;;;33.83;32.13;;;9.30;99.90;;;;;;5100499;28;20442;-73
2023/01/08 08:28:34;;;;;;;35.17;33.47;;;9.30;99.90;;;;;;5088741;28;20956;-72
2023/01/08 08:31:01;;;;;;;34.27;32.57;;;9.30;99.90;;;;;;5089296;28;20478;-72
2023/01/08 08:33:27;;;;;;;35.00;33.20;;;9.30;99.90;;;;;;5089098;28;20517;-73
2023/01/08 08:35:54;;;;;;;35.90;34.20;;;9.30;99.90;;;;;;5088494;28;20958;-73
2023/01/08 08:38:23;;;;;;;35.40;33.70;;;9.30;99.90;;;;;;5089684;28;20820;-73
2023/01/08 08:40:50;;;;;;;36.47;34.47;;;9.30;99.90;;;;;;5089847;28;20461;-73
2023/01/08 08:43:17;;;;;;;36.03;34.17;;;9.30;99.90;;;;;;5090085;28;20515;-73
2023/01/08 08:45:43;;;;;;;36.50;34.70;;;9.30;99.90;;;;;;5090223;28;20450;-73
2023/01/08 08:48:11;;;;;;;34.40;32.80;;;9.20;99.90;;;;;;5089771;28;20847;-74
2023/01/08 08:50:38;;;;;;;33.87;32.27;;;9.20;99.90;;;;;;5090030;28;20529;-74
2023/01/08 08:53:06;;;;;;;32.60;31.10;;;9.20;99.90;;;;;;5089501;28;20794;-73
2023/01/08 08:55:34;;;;;;;32.70;31.10;;;9.20;99.90;;;;;;5089440;28;20435;-74
2023/01/08 08:58:06;;;;;;;33.30;31.70;;;9.20;99.90;;;;;;5088735;28;20451;-74
2023/01/08 09:00:32;;;;;;;32.17;30.67;;;9.20;99.90;;;;;;5087551;28;20465;-75
2023/01/08 09:02:59;;;;;;;31.40;29.90;;;9.20;99.90;;;;;;5089662;28;20458;-73
2023/01/08 09:05:26;;;;;;;32.33;30.80;;;9.20;99.90;;;;;;5090156;28;20446;-73
2023/01/08 09:07:53;;;;;;;31.83;30.33;;;9.20;99.90;;;;;;5089853;28;20446;-74
2023/01/08 09:10:19;;;;;;;31.67;30.27;;;9.20;99.90;;;;;;5089718;28;20451;-73
2023/01/08 09:12:47;;;;;;;31.30;29.90;;;9.20;99.90;;;;;;5089911;28;20490;-74
2023/01/08 09:15:14;;;;;;;31.83;30.27;;;9.30;99.90;;;;;;5090122;28;20450;-75
2023/01/08 09:17:41;;;;;;;30.00;28.50;;;9.30;99.90;;;;;;5089439;28;20449;-75
2023/01/08 09:20:08;;;;;;;29.20;27.90;;;9.30;99.90;;;;;;5089998;28;20450;-75
2023/01/08 09:22:35;;;;;;;28.87;27.60;;;9.30;99.90;;;;;;5089934;28;20442;-75
2023/01/08 09:25:02;;;;;;;27.97;26.70;;;9.30;99.90;;;;;;5089543;28;20450;-76
2023/01/08 09:27:28;;;;;;;27.87;26.33;;;9.30;99.90;;;;;;5089985;28;20491;-74
2023/01/08 09:29:56;;;;;;;26.67;25.47;;;9.30;99.90;;;;;;5089995;28;20476;-75
2023/01/08 09:32:23;;;;;;;24.90;23.90;;;9.40;99.90;;;;;;5089575;28;20478;-75
2023/01/08 09:34:50;;;;;;;23.50;22.50;;;9.40;99.90;;;;;;5089768;28;20457;-75
2023/01/08 09:37:16;;;;;;;21.70;20.83;;;9.50;99.90;;;;;;5089803;28;20453;-75
2023/01/08 09:39:43;;;;;;;21.37;20.37;;;9.60;99.90;;;;;;5089987;28;20500;-75
2023/01/08 09:42:13;;;;;;;20.53;19.53;;;9.70;99.90;;;;;;5089488;28;20450;-75
2023/01/08 09:44:42;;;;;;;19.57;18.80;;;9.80;99.90;;;;;;5088964;28;20446;-76
2023/01/08 09:47:23;;;;;;;19.40;18.50;;;9.90;99.90;;;;;;5088921;28;20941;-75
2023/01/08 09:49:52;;;;;;;17.40;16.60;;;10.00;99.90;;;;;;5089838;28;20457;-75
2023/01/08 09:52:18;;;;;;;17.40;16.70;;;10.00;99.90;;;;;;5089486;28;20861;-77
2023/01/08 09:54:45;;;;;;;17.30;16.60;;;10.10;99.90;;;;;;5089855;28;20449;-76
2023/01/08 09:57:14;;;;;;;16.57;15.87;;;10.10;99.90;;;;;;5089710;28;20462;-76
2023/01/08 09:59:41;;;;;;;16.00;15.40;;;10.10;99.90;;;;;;5089957;28;20450;-76
2023/01/08 10:02:14;;;;;;;14.20;13.60;;;10.10;99.90;;;;;;5089785;28;20451;-77
2023/01/08 10:04:42;;;;;;;14.67;14.17;;;10.20;99.90;;;;;;5087860;28;20453;-77
2023/01/08 10:07:17;;;;;;;13.87;13.27;;;10.10;99.90;;;;;;5088475;28;20456;-76
2023/01/08 10:09:44;;;;;;;14.03;13.43;;;10.20;99.90;;;;;;5089289;28;20548;-76
2023/01/08 10:12:12;;;;;;;13.83;13.23;;;10.20;99.90;;;;;;5088875;28;20486;-77
2023/01/08 10:14:46;;;;;;;12.60;12.10;;;10.20;99.90;;;;;;5089478;28;20495;-78
2023/01/08 10:17:23;;;;;;;13.00;12.50;;;10.30;99.90;;;;;;5069132;28;20550;-77
2023/01/08 10:19:50;;;;;;;12.70;12.30;;;10.30;99.90;;;;;;5076645;28;20450;-77
2023/01/08 10:22:19;;;;;;;12.30;11.80;;;10.40;99.90;;;;;;5091065;28;20458;-78
2023/01/08 10:24:46;;;;;;;12.03;11.63;;;10.40;99.90;;;;;;5089359;28;20546;-76
2023/01/08 10:27:15;;;;;;;12.27;11.87;;;10.50;99.90;;;;;;5087660;28;20903;-78
2023/01/08 10:29:42;;;;;;;13.23;12.73;;;10.50;99.90;;;;;;5092894;28;20446;-76
2023/01/08 10:32:14;;;;;;;13.00;12.40;;;10.60;99.90;;;;;;5117718;28;20493;-77
2023/01/08 10:34:45;;;;;;;12.83;12.33;;;10.70;99.90;;;;;;5117429;28;20449;-77
2023/01/08 10:37:22;;;;;;;12.50;12.00;;;10.70;99.90;;;;;;5096478;28;20423;-76
2023/01/08 10:39:49;;;;;;;12.63;12.23;;;10.80;99.90;;;;;;5086428;28;20450;-77
2023/01/08 10:42:17;;;;;;;12.57;12.07;;;10.80;99.90;;;;;;5074205;28;20451;-77
2023/01/08 10:44:54;;;;;;;12.40;11.80;;;10.80;99.90;;;;;;5073450;28;20451;-78
2023/01/08 10:47:23;;;;;;;12.53;12.10;;;10.80;99.90;;;;;;5092235;28;20759;-78
2023/01/08 10:49:51;;;;;;;13.03;12.43;;;10.80;99.90;;;;;;5092390;28;21008;-78
2023/01/08 10:52:27;;;;;;;11.83;11.43;;;10.90;99.90;;;;;;5092301;28;20490;-79
2023/01/08 10:54:54;;;;;;;13.23;12.73;;;10.90;99.90;;;;;;5092477;28;20446;-79
2023/01/08 10:57:23;;;;;;;12.90;12.50;;;10.90;99.90;;;;;;5092261;28;20442;-79
2023/01/08 10:59:50;;;;;;;11.73;11.33;;;11.00;99.90;;;;;;5092498;28;20461;-80
2023/01/08 11:02:30;;;;;;;13.00;12.40;;;11.10;99.90;;;;;;5091853;28;20442;-80
2023/01/08 11:04:59;;;;;;;12.30;11.80;;;11.10;99.90;;;;;;5092516;28;20461;-82
2023/01/08 11:07:26;;;;;;;12.30;11.90;;;11.20;99.90;;;;;;5092371;28;20462;-82
2023/01/08 11:09:53;;;;;;;12.13;11.73;;;11.40;99.90;;;;;;5092032;28;20471;-82
2023/01/08 11:12:35;;;;;;;12.20;11.80;;;11.60;99.90;;;;;;5091215;28;20991;-82
2023/01/08 11:15:03;;;;;;;12.30;11.70;;;11.70;99.90;;;;;;5092319;28;20537;-81
2023/01/08 11:17:30;;;;;;;11.43;11.03;;;11.90;99.90;;;;;;5092077;28;20450;-82
2023/01/08 11:20:09;;;;;;;11.20;10.80;;;12.00;99.90;;;;;;5091695;28;20782;-81
2023/01/08 11:22:35;;;;;;;11.90;11.40;;;12.00;99.90;;;;;;5091723;28;20446;-82
2023/01/08 11:25:03;;;;;;;12.10;11.70;;;12.00;99.90;;;;;;5091728;28;20807;-83
2023/01/08 11:27:36;;;;;;;12.07;11.67;;;12.00;99.90;;;;;;5091674;28;20453;-83
2023/01/08 11:30:07;;;;;;;12.47;11.97;;;12.00;99.90;;;;;;5091960;28;20450;-82
2023/01/08 11:32:44;;;;;;;12.60;11.90;;;12.00;99.90;;;;;;5091354;28;20486;-83
2023/01/08 11:35:19;;;;;;;12.20;11.80;;;12.10;99.90;;;;;;5093932;28;20458;-84
2023/01/08 11:37:51;;;;;;;12.20;11.80;;;12.10;99.90;;;;;;5092047;28;20454;-83
2023/01/08 11:40:23;;;;;;;11.90;11.50;;;12.20;99.90;;;;;;5091852;28;20445;-83
2023/01/08 11:43:11;;;;;;;12.40;12.00;;;12.20;99.90;;;;;;5091913;28;20442;-83
2023/01/08 11:45:53;;;;;;;12.17;11.77;;;12.20;99.90;;;;;;5091610;28;20450;-83
2023/01/08 11:48:39;;;;;;;11.77;11.27;;;12.30;99.90;;;;;;5088490;28;20561;-83
2023/01/08 11:51:27;;;;;;;11.53;11.17;;;12.40;99.90;;;;;;5090929;28;20477;-83
2023/01/08 11:54:05;;;;;;;11.53;11.20;;;12.30;99.90;;;;;;5092778;28;20481;-82
2023/01/08 11:56:44;;;;;;;11.53;11.13;;;12.30;99.90;;;;;;5092151;28;20450;-83
2023/01/08 11:59:16;;;;;;;12.20;11.80;;;12.50;99.90;;;;;;5091948;28;20446;-83
2023/01/08 12:01:53;;;;;;;12.47;11.87;;;12.40;99.90;;;;;;5091606;28;20446;-82
2023/01/08 12:04:42;;;;;;;11.53;11.13;;;12.50;99.90;;;;;;5091896;28;20446;-82
2023/01/08 12:07:18;;;;;;;12.03;11.60;;;12.40;99.90;;;;;;5091152;28;20547;-82
2023/01/08 12:09:50;;;;;;;11.37;11.00;;;12.50;99.90;;;;;;5091342;28;20445;-81
2023/01/08 12:12:29;;;;;;;11.80;11.40;;;12.60;99.90;;;;;;5090958;28;20959;-82
2023/01/08 12:15:12;;;;;;;11.80;11.40;;;12.50;99.90;;;;;;5090692;28;20458;-82
2023/01/08 12:18:04;;;;;;;12.13;11.73;;;12.30;99.90;;;;;;5090518;28;20447;-81
2023/01/08 12:20:36;;;;;;;12.60;12.17;;;12.20;99.90;;;;;;5090195;28;20454;-82
2023/01/08 12:23:14;;;;;;;12.77;12.23;;;12.20;99.90;;;;;;5090586;28;20829;-81
2023/01/08 12:26:03;;;;;;;12.20;11.80;;;12.10;99.90;;;;;;5090735;28;20506;-81
2023/01/08 12:28:57;;;;;;;12.23;11.40;;;12.00;99.90;;;;;;5090563;28;20450;-82
2023/01/08 12:31:39;;;;;;;11.33;10.93;;;12.00;99.90;;;;;;5091010;28;20461;-82
2023/01/08 12:34:10;;;;;;;11.90;11.43;;;12.10;99.90;;;;;;5098947;28;20497;-81
2023/01/08 12:36:42;;;;;;;11.60;11.20;;;12.10;99.90;;;;;;5114314;28;20434;-81
2023/01/08 12:39:17;;;;;;;12.20;11.80;;;12.10;99.90;;;;;;5109257;28;20444;-80
2023/01/08 12:41:46;;;;;;;11.10;10.80;;;12.20;99.90;;;;;;5109989;28;20441;-80
2023/01/08 12:44:18;;;;;;;11.53;11.13;;;12.20;99.90;;;;;;5108713;28;20457;-80